sensor_id;sensor_type;location;lat;lon;timestamp;P1;durP1;ratioP1;P2;durP2;ratioP2
62037;SDS011;47991;42.974;12.082;2023-04-25T00:00:35;7.20;;;1.60;;
62037;SDS011;47991;42.974;12.082;2023-04-25T00:03:22;8.50;;;2.80;;
62037;SDS011;47991;42.974;12.082;2023-04-25T00:05:51;10.30;;;1.60;;
62037;SDS011;47991;42.974;12.082;2023-04-25T00:08:17;7.00;;;1.60;;
62037;SDS011;47991;42.974;12.082;2023-04-25T00:10:44;5.60;;;1.60;;
62037;SDS011;47991;42.974;12.082;2023-04-25T00:13:10;11.10;;;2.10;;
62037;SDS011;47991;42.974;12.082;2023-04-25T06:28:07;14.40;;;3.30;;
62037;SDS011;47991;42.974;12.082;2023-04-25T06:30:34;18.10;;;3.40;;
62037;SDS011;47991;42.974;12.082;2023-04-25T06:33:00;13.10;;;2.90;;
62037;SDS011;47991;42.974;12.082;2023-04-25T06:35:29;11.10;;;2.90;;
62037;SDS011;47991;42.974;12.082;2023-04-25T06:37:55;12.30;;;3.40;;
62037;SDS011;47991;42.974;12.082;2023-04-25T06:40:23;10.50;;;3.50;;
62037;SDS011;47991;42.974;12.082;2023-04-25T06:42:49;14.30;;;3.10;;
62037;SDS011;47991;42.974;12.082;2023-04-25T06:45:23;12.60;;;2.80;;
62037;SDS011;47991;42.974;12.082;2023-04-25T06:47:50;14.20;;;3.90;;
62037;SDS011;47991;42.974;12.082;2023-04-25T06:50:16;8.80;;;2.60;;
62037;SDS011;47991;42.974;12.082;2023-04-25T06:52:47;15.10;;;3.30;;
62037;SDS011;47991;42.974;12.082;2023-04-25T06:55:14;16.40;;;2.90;;
62037;SDS011;47991;42.974;12.082;2023-04-25T06:57:40;14.70;;;3.30;;
62037;SDS011;47991;42.974;12.082;2023-04-25T07:00:09;13.30;;;3.10;;
62037;SDS011;47991;42.974;12.082;2023-04-25T07:02:37;9.90;;;2.60;;
62037;SDS011;47991;42.974;12.082;2023-04-25T07:05:09;12.70;;;2.60;;
62037;SDS011;47991;42.974;12.082;2023-04-25T07:07:39;11.20;;;2.60;;
62037;SDS011;47991;42.974;12.082;2023-04-25T07:10:09;12.40;;;2.90;;
62037;SDS011;47991;42.974;12.082;2023-04-25T07:12:35;11.60;;;2.90;;
62037;SDS011;47991;42.974;12.082;2023-04-25T07:15:05;15.80;;;3.60;;
62037;SDS011;47991;42.974;12.082;2023-04-25T07:17:36;11.90;;;2.80;;
62037;SDS011;47991;42.974;12.082;2023-04-25T07:20:07;12.80;;;3.30;;
62037;SDS011;47991;42.974;12.082;2023-04-25T07:23:01;11.40;;;2.90;;
62037;SDS011;47991;42.974;12.082;2023-04-25T07:25:30;14.10;;;3.20;;
62037;SDS011;47991;42.974;12.082;2023-04-25T07:28:17;11.30;;;3.00;;
62037;SDS011;47991;42.974;12.082;2023-04-25T07:30:47;14.30;;;3.60;;
62037;SDS011;47991;42.974;12.082;2023-04-25T07:33:13;13.30;;;2.80;;
62037;SDS011;47991;42.974;12.082;2023-04-25T07:35:51;11.60;;;3.00;;
62037;SDS011;47991;42.974;12.082;2023-04-25T07:38:24;8.90;;;2.80;;
62037;SDS011;47991;42.974;12.082;2023-04-25T07:40:50;11.10;;;2.70;;
62037;SDS011;47991;42.974;12.082;2023-04-25T07:43:20;14.00;;;3.40;;
62037;SDS011;47991;42.974;12.082;2023-04-25T07:45:53;16.90;;;3.40;;
62037;SDS011;47991;42.974;12.082;2023-04-25T07:48:28;10.90;;;2.70;;
62037;SDS011;47991;42.974;12.082;2023-04-25T07:50:55;13.50;;;2.50;;
62037;SDS011;47991;42.974;12.082;2023-04-25T07:53:21;12.30;;;3.00;;
62037;SDS011;47991;42.974;12.082;2023-04-25T07:55:47;12.60;;;3.60;;
62037;SDS011;47991;42.974;12.082;2023-04-25T07:58:17;11.00;;;2.80;;
62037;SDS011;47991;42.974;12.082;2023-04-25T08:03:14;9.30;;;2.70;;
62037;SDS011;47991;42.974;12.082;2023-04-25T08:05:40;12.50;;;3.30;;
62037;SDS011;47991;42.974;12.082;2023-04-25T08:08:06;8.20;;;2.70;;
62037;SDS011;47991;42.974;12.082;2023-04-25T08:10:33;13.20;;;3.70;;
62037;SDS011;47991;42.974;12.082;2023-04-25T08:12:59;11.60;;;3.60;;
62037;SDS011;47991;42.974;12.082;2023-04-25T08:15:25;10.50;;;3.00;;
62037;SDS011;47991;42.974;12.082;2023-04-25T08:17:52;11.30;;;3.00;;
62037;SDS011;47991;42.974;12.082;2023-04-25T08:20:18;13.20;;;2.90;;
62037;SDS011;47991;42.974;12.082;2023-04-25T08:22:44;12.10;;;3.40;;
62037;SDS011;47991;42.974;12.082;2023-04-25T08:25:10;11.60;;;2.70;;
62037;SDS011;47991;42.974;12.082;2023-04-25T08:27:40;10.40;;;2.50;;
62037;SDS011;47991;42.974;12.082;2023-04-25T08:30:07;20.00;;;3.40;;
62037;SDS011;47991;42.974;12.082;2023-04-25T08:32:37;11.80;;;3.20;;
62037;SDS011;47991;42.974;12.082;2023-04-25T08:35:06;10.80;;;3.20;;
62037;SDS011;47991;42.974;12.082;2023-04-25T08:37:34;7.60;;;2.20;;
62037;SDS011;47991;42.974;12.082;2023-04-25T08:40:03;10.50;;;2.70;;
62037;SDS011;47991;42.974;12.082;2023-04-25T08:42:37;10.20;;;2.90;;
62037;SDS011;47991;42.974;12.082;2023-04-25T08:45:14;12.60;;;3.30;;
62037;SDS011;47991;42.974;12.082;2023-04-25T08:47:41;10.20;;;2.70;;
62037;SDS011;47991;42.974;12.082;2023-04-25T08:50:11;13.60;;;3.10;;
62037;SDS011;47991;42.974;12.082;2023-04-25T08:52:39;11.70;;;3.30;;
62037;SDS011;47991;42.974;12.082;2023-04-25T08:55:12;12.70;;;2.60;;
62037;SDS011;47991;42.974;12.082;2023-04-25T08:57:43;16.10;;;2.90;;
62037;SDS011;47991;42.974;12.082;2023-04-25T09:00:11;14.10;;;3.30;;
62037;SDS011;47991;42.974;12.082;2023-04-25T09:05:10;16.90;;;3.20;;
62037;SDS011;47991;42.974;12.082;2023-04-25T09:07:41;13.20;;;3.00;;
62037;SDS011;47991;42.974;12.082;2023-04-25T09:10:19;14.80;;;3.20;;
62037;SDS011;47991;42.974;12.082;2023-04-25T09:13:10;12.60;;;3.20;;
62037;SDS011;47991;42.974;12.082;2023-04-25T09:15:53;9.60;;;2.80;;
62037;SDS011;47991;42.974;12.082;2023-04-25T09:18:31;12.30;;;2.80;;
62037;SDS011;47991;42.974;12.082;2023-04-25T09:21:04;11.50;;;3.30;;
62037;SDS011;47991;42.974;12.082;2023-04-25T09:23:45;11.90;;;3.00;;
62037;SDS011;47991;42.974;12.082;2023-04-25T09:26:14;17.60;;;3.00;;
62037;SDS011;47991;42.974;12.082;2023-04-25T09:28:43;12.20;;;3.80;;
62037;SDS011;47991;42.974;12.082;2023-04-25T09:31:21;14.40;;;3.50;;
62037;SDS011;47991;42.974;12.082;2023-04-25T09:33:59;16.60;;;3.80;;
62037;SDS011;47991;42.974;12.082;2023-04-25T09:36:38;13.00;;;3.60;;
62037;SDS011;47991;42.974;12.082;2023-04-25T09:39:06;9.80;;;3.60;;
62037;SDS011;47991;42.974;12.082;2023-04-25T09:41:57;13.30;;;3.50;;
62037;SDS011;47991;42.974;12.082;2023-04-25T09:44:26;16.60;;;3.60;;
62037;SDS011;47991;42.974;12.082;2023-04-25T09:46:56;13.60;;;3.00;;
62037;SDS011;47991;42.974;12.082;2023-04-25T09:49:26;20.30;;;4.10;;
62037;SDS011;47991;42.974;12.082;2023-04-25T09:51:57;14.00;;;3.30;;
62037;SDS011;47991;42.974;12.082;2023-04-25T09:54:32;11.30;;;3.20;;
62037;SDS011;47991;42.974;12.082;2023-04-25T09:57:01;13.70;;;3.50;;
62037;SDS011;47991;42.974;12.082;2023-04-25T10:00:14;12.30;;;3.50;;
62037;SDS011;47991;42.974;12.082;2023-04-25T10:02:42;13.50;;;3.10;;
62037;SDS011;47991;42.974;12.082;2023-04-25T10:05:22;11.30;;;3.00;;
62037;SDS011;47991;42.974;12.082;2023-04-25T10:07:52;15.00;;;3.10;;
62037;SDS011;47991;42.974;12.082;2023-04-25T10:10:23;12.10;;;3.30;;
62037;SDS011;47991;42.974;12.082;2023-04-25T10:12:56;12.90;;;3.50;;
62037;SDS011;47991;42.974;12.082;2023-04-25T10:15:23;12.70;;;3.40;;
62037;SDS011;47991;42.974;12.082;2023-04-25T10:17:56;14.80;;;4.50;;
62037;SDS011;47991;42.974;12.082;2023-04-25T10:20:24;11.00;;;3.40;;
62037;SDS011;47991;42.974;12.082;2023-04-25T10:22:51;13.70;;;3.80;;
62037;SDS011;47991;42.974;12.082;2023-04-25T10:25:25;13.20;;;3.80;;
62037;SDS011;47991;42.974;12.082;2023-04-25T10:27:52;11.80;;;3.20;;
62037;SDS011;47991;42.974;12.082;2023-04-25T10:32:52;14.10;;;3.70;;
62037;SDS011;47991;42.974;12.082;2023-04-25T10:35:28;15.30;;;3.80;;
62037;SDS011;47991;42.974;12.082;2023-04-25T10:38:00;13.20;;;3.50;;
62037;SDS011;47991;42.974;12.082;2023-04-25T10:40:32;12.80;;;3.70;;
62037;SDS011;47991;42.974;12.082;2023-04-25T10:48:52;17.20;;;5.30;;
62037;SDS011;47991;42.974;12.082;2023-04-25T10:51:27;16.30;;;5.80;;
62037;SDS011;47991;42.974;12.082;2023-04-25T10:54:04;13.80;;;3.70;;
62037;SDS011;47991;42.974;12.082;2023-04-25T10:56:32;11.60;;;3.80;;
62037;SDS011;47991;42.974;12.082;2023-04-25T11:01:36;13.10;;;4.20;;
62037;SDS011;47991;42.974;12.082;2023-04-25T11:04:04;11.10;;;3.70;;
62037;SDS011;47991;42.974;12.082;2023-04-25T11:06:44;13.10;;;4.20;;
62037;SDS011;47991;42.974;12.082;2023-04-25T11:09:23;14.30;;;3.70;;
62037;SDS011;47991;42.974;12.082;2023-04-25T11:11:55;13.90;;;3.30;;
62037;SDS011;47991;42.974;12.082;2023-04-25T11:14:25;12.30;;;3.50;;
62037;SDS011;47991;42.974;12.082;2023-04-25T11:16:56;15.90;;;4.30;;
62037;SDS011;47991;42.974;12.082;2023-04-25T11:19:26;12.10;;;4.00;;
62037;SDS011;47991;42.974;12.082;2023-04-25T11:21:56;13.40;;;3.30;;
62037;SDS011;47991;42.974;12.082;2023-04-25T11:24:27;12.20;;;3.00;;
62037;SDS011;47991;42.974;12.082;2023-04-25T11:26:54;11.70;;;3.20;;
62037;SDS011;47991;42.974;12.082;2023-04-25T11:29:23;12.60;;;2.80;;
62037;SDS011;47991;42.974;12.082;2023-04-25T11:31:54;11.00;;;3.00;;
62037;SDS011;47991;42.974;12.082;2023-04-25T11:34:24;10.70;;;3.20;;
62037;SDS011;47991;42.974;12.082;2023-04-25T11:36:59;13.70;;;3.20;;
62037;SDS011;47991;42.974;12.082;2023-04-25T11:39:27;11.50;;;2.90;;
62037;SDS011;47991;42.974;12.082;2023-04-25T11:42:03;11.00;;;2.90;;
62037;SDS011;47991;42.974;12.082;2023-04-25T11:44:35;11.70;;;3.20;;
62037;SDS011;47991;42.974;12.082;2023-04-25T11:47:14;10.30;;;2.80;;
62037;SDS011;47991;42.974;12.082;2023-04-25T11:49:41;11.40;;;2.70;;
62037;SDS011;47991;42.974;12.082;2023-04-25T11:52:07;11.00;;;2.80;;
62037;SDS011;47991;42.974;12.082;2023-04-25T11:54:37;12.00;;;2.80;;
62037;SDS011;47991;42.974;12.082;2023-04-25T11:57:06;7.30;;;2.10;;
62037;SDS011;47991;42.974;12.082;2023-04-25T11:59:39;7.40;;;2.00;;
62037;SDS011;47991;42.974;12.082;2023-04-25T12:02:06;5.30;;;1.60;;
62037;SDS011;47991;42.974;12.082;2023-04-25T12:04:35;4.90;;;1.60;;
62037;SDS011;47991;42.974;12.082;2023-04-25T12:07:02;9.80;;;1.90;;
62037;SDS011;47991;42.974;12.082;2023-04-25T12:09:41;5.70;;;1.90;;
62037;SDS011;47991;42.974;12.082;2023-04-25T12:12:10;12.10;;;2.70;;
62037;SDS011;47991;42.974;12.082;2023-04-25T12:14:36;7.30;;;1.70;;
62037;SDS011;47991;42.974;12.082;2023-04-25T12:17:03;2.90;;;1.50;;
62037;SDS011;47991;42.974;12.082;2023-04-25T12:19:34;12.20;;;2.10;;
62037;SDS011;47991;42.974;12.082;2023-04-25T12:22:19;5.00;;;1.60;;
62037;SDS011;47991;42.974;12.082;2023-04-25T12:25:02;6.80;;;1.90;;
62037;SDS011;47991;42.974;12.082;2023-04-25T12:27:32;8.90;;;2.00;;
62037;SDS011;47991;42.974;12.082;2023-04-25T12:29:59;9.40;;;2.40;;
62037;SDS011;47991;42.974;12.082;2023-04-25T12:32:32;7.20;;;2.00;;
62037;SDS011;47991;42.974;12.082;2023-04-25T12:35:17;8.20;;;1.90;;
62037;SDS011;47991;42.974;12.082;2023-04-25T12:37:46;9.20;;;2.20;;
62037;SDS011;47991;42.974;12.082;2023-04-25T12:40:28;5.40;;;1.70;;
62037;SDS011;47991;42.974;12.082;2023-04-25T12:42:54;7.00;;;1.90;;
62037;SDS011;47991;42.974;12.082;2023-04-25T12:45:21;7.90;;;1.90;;
62037;SDS011;47991;42.974;12.082;2023-04-25T12:47:52;8.50;;;2.00;;
62037;SDS011;47991;42.974;12.082;2023-04-25T12:50:19;7.40;;;1.70;;
62037;SDS011;47991;42.974;12.082;2023-04-25T12:52:50;7.10;;;2.20;;
62037;SDS011;47991;42.974;12.082;2023-04-25T12:55:20;7.50;;;1.70;;
62037;SDS011;47991;42.974;12.082;2023-04-25T12:57:49;6.20;;;1.90;;
62037;SDS011;47991;42.974;12.082;2023-04-25T13:00:18;7.40;;;1.90;;
62037;SDS011;47991;42.974;12.082;2023-04-25T13:02:46;4.80;;;1.70;;
62037;SDS011;47991;42.974;12.082;2023-04-25T13:05:21;9.30;;;1.80;;
62037;SDS011;47991;42.974;12.082;2023-04-25T13:07:48;6.20;;;2.10;;
62037;SDS011;47991;42.974;12.082;2023-04-25T13:10:18;7.20;;;1.90;;
62037;SDS011;47991;42.974;12.082;2023-04-25T13:12:57;7.30;;;2.30;;
62037;SDS011;47991;42.974;12.082;2023-04-25T13:15:26;6.40;;;1.70;;
62037;SDS011;47991;42.974;12.082;2023-04-25T13:17:56;9.30;;;2.00;;
62037;SDS011;47991;42.974;12.082;2023-04-25T13:20:31;6.70;;;1.70;;
62037;SDS011;47991;42.974;12.082;2023-04-25T13:23:01;5.60;;;1.60;;
62037;SDS011;47991;42.974;12.082;2023-04-25T13:25:31;6.90;;;1.80;;
62037;SDS011;47991;42.974;12.082;2023-04-25T13:28:19;4.90;;;1.60;;
62037;SDS011;47991;42.974;12.082;2023-04-25T13:30:47;5.90;;;1.70;;
62037;SDS011;47991;42.974;12.082;2023-04-25T13:33:17;5.30;;;1.60;;
62037;SDS011;47991;42.974;12.082;2023-04-25T13:35:53;8.20;;;1.90;;
62037;SDS011;47991;42.974;12.082;2023-04-25T13:38:21;7.70;;;2.00;;
62037;SDS011;47991;42.974;12.082;2023-04-25T13:41:08;6.00;;;1.90;;
62037;SDS011;47991;42.974;12.082;2023-04-25T13:43:37;5.20;;;1.80;;
62037;SDS011;47991;42.974;12.082;2023-04-25T13:46:03;5.80;;;1.80;;
62037;SDS011;47991;42.974;12.082;2023-04-25T13:48:30;6.80;;;2.20;;
62037;SDS011;47991;42.974;12.082;2023-04-25T13:50:56;6.10;;;1.80;;
62037;SDS011;47991;42.974;12.082;2023-04-25T13:53:25;6.50;;;1.90;;
62037;SDS011;47991;42.974;12.082;2023-04-25T13:55:52;5.40;;;1.90;;
62037;SDS011;47991;42.974;12.082;2023-04-25T13:58:54;7.80;;;2.60;;
62037;SDS011;47991;42.974;12.082;2023-04-25T14:01:20;6.50;;;1.70;;
62037;SDS011;47991;42.974;12.082;2023-04-25T14:03:53;7.30;;;2.00;;
62037;SDS011;47991;42.974;12.082;2023-04-25T14:06:20;8.00;;;1.80;;
62037;SDS011;47991;42.974;12.082;2023-04-25T14:08:58;7.00;;;1.80;;
62037;SDS011;47991;42.974;12.082;2023-04-25T14:11:26;7.40;;;1.90;;
62037;SDS011;47991;42.974;12.082;2023-04-25T14:14:43;5.90;;;1.80;;
62037;SDS011;47991;42.974;12.082;2023-04-25T14:17:14;5.90;;;1.90;;
62037;SDS011;47991;42.974;12.082;2023-04-25T14:19:44;8.60;;;2.20;;
62037;SDS011;47991;42.974;12.082;2023-04-25T14:22:24;7.10;;;2.00;;
62037;SDS011;47991;42.974;12.082;2023-04-25T14:24:56;8.50;;;1.90;;
62037;SDS011;47991;42.974;12.082;2023-04-25T14:27:25;5.70;;;2.00;;
62037;SDS011;47991;42.974;12.082;2023-04-25T14:29:52;6.70;;;1.60;;
62037;SDS011;47991;42.974;12.082;2023-04-25T14:32:27;6.30;;;1.90;;
62037;SDS011;47991;42.974;12.082;2023-04-25T14:34:56;10.60;;;2.00;;
62037;SDS011;47991;42.974;12.082;2023-04-25T14:37:22;6.20;;;2.00;;
62037;SDS011;47991;42.974;12.082;2023-04-25T14:39:51;4.10;;;1.60;;
62037;SDS011;47991;42.974;12.082;2023-04-25T14:42:17;9.50;;;2.00;;
62037;SDS011;47991;42.974;12.082;2023-04-25T14:44:51;9.80;;;2.10;;
62037;SDS011;47991;42.974;12.082;2023-04-25T14:47:17;8.40;;;1.90;;
62037;SDS011;47991;42.974;12.082;2023-04-25T14:49:53;6.80;;;1.70;;
62037;SDS011;47991;42.974;12.082;2023-04-25T14:52:20;7.70;;;1.70;;
62037;SDS011;47991;42.974;12.082;2023-04-25T14:54:49;10.00;;;2.60;;
62037;SDS011;47991;42.974;12.082;2023-04-25T14:57:16;16.60;;;2.60;;
62037;SDS011;47991;42.974;12.082;2023-04-25T14:59:43;8.40;;;2.10;;
62037;SDS011;47991;42.974;12.082;2023-04-25T15:02:10;7.70;;;1.70;;
62037;SDS011;47991;42.974;12.082;2023-04-25T15:04:36;6.80;;;1.90;;
62037;SDS011;47991;42.974;12.082;2023-04-25T15:07:03;9.50;;;2.90;;
62037;SDS011;47991;42.974;12.082;2023-04-25T15:09:33;10.10;;;3.00;;
62037;SDS011;47991;42.974;12.082;2023-04-25T15:12:00;17.00;;;3.40;;
62037;SDS011;47991;42.974;12.082;2023-04-25T15:14:28;12.10;;;3.00;;
62037;SDS011;47991;42.974;12.082;2023-04-25T15:17:00;9.00;;;2.60;;
62037;SDS011;47991;42.974;12.082;2023-04-25T15:19:26;7.00;;;1.90;;
62037;SDS011;47991;42.974;12.082;2023-04-25T15:21:53;5.80;;;1.90;;
62037;SDS011;47991;42.974;12.082;2023-04-25T15:24:19;8.70;;;2.10;;
62037;SDS011;47991;42.974;12.082;2023-04-25T15:26:46;6.60;;;1.90;;
62037;SDS011;47991;42.974;12.082;2023-04-25T15:29:12;7.20;;;2.20;;
62037;SDS011;47991;42.974;12.082;2023-04-25T15:31:38;4.90;;;1.70;;
62037;SDS011;47991;42.974;12.082;2023-04-25T15:34:04;5.50;;;1.90;;
62037;SDS011;47991;42.974;12.082;2023-04-25T15:36:33;5.10;;;1.60;;
62037;SDS011;47991;42.974;12.082;2023-04-25T15:39:00;7.40;;;1.70;;
62037;SDS011;47991;42.974;12.082;2023-04-25T15:41:26;6.90;;;1.80;;
62037;SDS011;47991;42.974;12.082;2023-04-25T15:43:52;4.50;;;1.70;;
62037;SDS011;47991;42.974;12.082;2023-04-25T15:46:19;6.90;;;1.60;;
62037;SDS011;47991;42.974;12.082;2023-04-25T15:48:51;5.40;;;1.90;;
62037;SDS011;47991;42.974;12.082;2023-04-25T15:51:18;4.90;;;2.20;;
62037;SDS011;47991;42.974;12.082;2023-04-25T15:53:44;5.40;;;1.70;;
62037;SDS011;47991;42.974;12.082;2023-04-25T15:56:10;5.80;;;1.50;;
62037;SDS011;47991;42.974;12.082;2023-04-25T15:58:36;6.60;;;1.90;;
62037;SDS011;47991;42.974;12.082;2023-04-25T16:01:02;5.50;;;1.80;;
62037;SDS011;47991;42.974;12.082;2023-04-25T18:28:05;8.40;;;2.20;;
62037;SDS011;47991;42.974;12.082;2023-04-25T18:30:31;6.20;;;2.00;;
62037;SDS011;47991;42.974;12.082;2023-04-25T18:33:00;5.90;;;2.30;;
62037;SDS011;47991;42.974;12.082;2023-04-25T18:35:26;5.50;;;2.50;;
62037;SDS011;47991;42.974;12.082;2023-04-25T18:38:06;6.40;;;2.10;;
62037;SDS011;47991;42.974;12.082;2023-04-25T18:40:36;4.70;;;1.90;;
62037;SDS011;47991;42.974;12.082;2023-04-25T18:43:02;4.80;;;1.70;;
62037;SDS011;47991;42.974;12.082;2023-04-25T18:45:34;5.70;;;1.70;;
62037;SDS011;47991;42.974;12.082;2023-04-25T18:48:30;4.40;;;1.80;;
62037;SDS011;47991;42.974;12.082;2023-04-25T18:50:56;3.70;;;1.60;;
62037;SDS011;47991;42.974;12.082;2023-04-25T18:53:25;3.70;;;1.50;;
62037;SDS011;47991;42.974;12.082;2023-04-25T18:55:56;4.30;;;1.60;;
62037;SDS011;47991;42.974;12.082;2023-04-25T18:58:22;3.70;;;1.50;;
62037;SDS011;47991;42.974;12.082;2023-04-25T19:00:51;4.70;;;1.50;;
62037;SDS011;47991;42.974;12.082;2023-04-25T19:03:18;6.50;;;1.70;;
62037;SDS011;47991;42.974;12.082;2023-04-25T19:05:48;5.60;;;1.90;;
62037;SDS011;47991;42.974;12.082;2023-04-25T19:08:17;7.30;;;1.90;;
62037;SDS011;47991;42.974;12.082;2023-04-25T19:10:44;6.50;;;1.80;;
62037;SDS011;47991;42.974;12.082;2023-04-25T19:13:12;6.00;;;1.60;;
62037;SDS011;47991;42.974;12.082;2023-04-25T19:15:39;6.80;;;1.80;;
62037;SDS011;47991;42.974;12.082;2023-04-25T19:18:07;6.20;;;1.90;;
62037;SDS011;47991;42.974;12.082;2023-04-25T19:20:34;6.60;;;1.90;;
62037;SDS011;47991;42.974;12.082;2023-04-25T19:23:00;4.70;;;1.60;;
62037;SDS011;47991;42.974;12.082;2023-04-25T19:25:29;7.20;;;2.00;;
62037;SDS011;47991;42.974;12.082;2023-04-25T19:27:56;4.00;;;1.70;;
62037;SDS011;47991;42.974;12.082;2023-04-25T19:30:28;6.00;;;1.80;;
62037;SDS011;47991;42.974;12.082;2023-04-25T19:32:58;5.80;;;2.20;;
62037;SDS011;47991;42.974;12.082;2023-04-25T19:35:24;3.70;;;1.70;;
62037;SDS011;47991;42.974;12.082;2023-04-25T19:37:57;6.10;;;1.70;;
62037;SDS011;47991;42.974;12.082;2023-04-25T19:40:24;5.20;;;1.90;;
62037;SDS011;47991;42.974;12.082;2023-04-25T19:42:50;4.20;;;1.70;;
62037;SDS011;47991;42.974;12.082;2023-04-25T19:45:17;4.00;;;1.60;;
62037;SDS011;47991;42.974;12.082;2023-04-25T19:47:43;5.30;;;1.60;;
62037;SDS011;47991;42.974;12.082;2023-04-25T19:50:10;4.90;;;1.60;;
62037;SDS011;47991;42.974;12.082;2023-04-25T19:52:37;4.70;;;1.80;;
62037;SDS011;47991;42.974;12.082;2023-04-25T19:55:08;4.40;;;1.90;;
62037;SDS011;47991;42.974;12.082;2023-04-25T19:57:45;4.60;;;1.50;;
62037;SDS011;47991;42.974;12.082;2023-04-25T20:00:16;4.80;;;2.10;;
62037;SDS011;47991;42.974;12.082;2023-04-25T20:02:43;3.50;;;1.70;;
62037;SDS011;47991;42.974;12.082;2023-04-25T20:05:19;4.60;;;1.80;;
62037;SDS011;47991;42.974;12.082;2023-04-25T20:07:46;4.90;;;2.00;;
62037;SDS011;47991;42.974;12.082;2023-04-25T20:10:12;5.20;;;1.60;;
62037;SDS011;47991;42.974;12.082;2023-04-25T20:12:40;3.20;;;1.60;;
62037;SDS011;47991;42.974;12.082;2023-04-25T20:15:07;3.70;;;1.70;;
62037;SDS011;47991;42.974;12.082;2023-04-25T20:17:37;3.50;;;1.50;;
62037;SDS011;47991;42.974;12.082;2023-04-25T20:20:05;5.50;;;2.00;;
62037;SDS011;47991;42.974;12.082;2023-04-25T20:22:31;5.00;;;1.80;;
62037;SDS011;47991;42.974;12.082;2023-04-25T20:25:05;5.80;;;1.80;;
62037;SDS011;47991;42.974;12.082;2023-04-25T20:27:37;6.30;;;1.50;;
62037;SDS011;47991;42.974;12.082;2023-04-25T20:30:05;4.80;;;1.90;;
62037;SDS011;47991;42.974;12.082;2023-04-25T20:32:36;3.50;;;1.60;;
62037;SDS011;47991;42.974;12.082;2023-04-25T20:35:04;3.30;;;1.60;;
62037;SDS011;47991;42.974;12.082;2023-04-25T20:37:33;5.20;;;1.50;;
62037;SDS011;47991;42.974;12.082;2023-04-25T20:40:02;4.70;;;1.60;;
62037;SDS011;47991;42.974;12.082;2023-04-25T20:42:35;4.60;;;1.70;;
62037;SDS011;47991;42.974;12.082;2023-04-25T20:47:58;5.50;;;1.80;;
62037;SDS011;47991;42.974;12.082;2023-04-25T20:50:25;2.50;;;1.30;;
62037;SDS011;47991;42.974;12.082;2023-04-25T20:52:52;4.00;;;1.60;;
62037;SDS011;47991;42.974;12.082;2023-04-25T20:55:18;4.90;;;1.80;;
62037;SDS011;47991;42.974;12.082;2023-04-25T20:57:45;4.00;;;1.60;;
62037;SDS011;47991;42.974;12.082;2023-04-25T21:00:12;5.00;;;1.90;;
62037;SDS011;47991;42.974;12.082;2023-04-25T21:03:16;4.80;;;1.60;;
62037;SDS011;47991;42.974;12.082;2023-04-25T21:05:43;4.00;;;1.50;;
62037;SDS011;47991;42.974;12.082;2023-04-25T21:08:09;5.40;;;1.70;;
62037;SDS011;47991;42.974;12.082;2023-04-25T21:10:35;5.20;;;1.70;;
62037;SDS011;47991;42.974;12.082;2023-04-25T21:13:02;5.90;;;2.20;;
62037;SDS011;47991;42.974;12.082;2023-04-25T21:15:31;4.20;;;1.80;;
62037;SDS011;47991;42.974;12.082;2023-04-25T21:17:58;5.10;;;1.90;;
62037;SDS011;47991;42.974;12.082;2023-04-25T21:20:24;8.00;;;1.80;;
62037;SDS011;47991;42.974;12.082;2023-04-25T21:22:50;3.00;;;1.30;;
62037;SDS011;47991;42.974;12.082;2023-04-25T21:25:17;5.80;;;1.70;;
62037;SDS011;47991;42.974;12.082;2023-04-25T21:27:46;3.70;;;1.60;;
62037;SDS011;47991;42.974;12.082;2023-04-25T21:30:14;3.70;;;1.50;;
62037;SDS011;47991;42.974;12.082;2023-04-25T21:32:45;5.10;;;1.70;;
62037;SDS011;47991;42.974;12.082;2023-04-25T21:35:18;3.70;;;1.60;;
62037;SDS011;47991;42.974;12.082;2023-04-25T21:37:48;6.40;;;1.90;;
62037;SDS011;47991;42.974;12.082;2023-04-25T21:40:15;6.30;;;1.80;;
62037;SDS011;47991;42.974;12.082;2023-04-25T21:42:43;3.90;;;1.60;;
62037;SDS011;47991;42.974;12.082;2023-04-25T21:45:23;4.20;;;1.70;;
62037;SDS011;47991;42.974;12.082;2023-04-25T21:47:51;3.90;;;1.80;;
62037;SDS011;47991;42.974;12.082;2023-04-25T21:50:17;4.20;;;1.70;;
62037;SDS011;47991;42.974;12.082;2023-04-25T21:52:44;3.50;;;1.60;;
62037;SDS011;47991;42.974;12.082;2023-04-25T21:55:12;4.60;;;1.60;;
62037;SDS011;47991;42.974;12.082;2023-04-25T21:57:39;2.70;;;1.40;;
62037;SDS011;47991;42.974;12.082;2023-04-25T22:00:06;3.10;;;1.70;;
62037;SDS011;47991;42.974;12.082;2023-04-25T22:02:49;2.80;;;1.40;;
62037;SDS011;47991;42.974;12.082;2023-04-25T22:05:17;3.10;;;1.60;;
62037;SDS011;47991;42.974;12.082;2023-04-25T22:07:50;4.90;;;1.70;;
62037;SDS011;47991;42.974;12.082;2023-04-25T22:10:19;3.10;;;1.50;;
62037;SDS011;47991;42.974;12.082;2023-04-25T22:12:47;7.00;;;2.50;;
62037;SDS011;47991;42.974;12.082;2023-04-25T22:15:23;6.70;;;2.00;;
62037;SDS011;47991;42.974;12.082;2023-04-25T22:17:51;4.50;;;1.80;;
62037;SDS011;47991;42.974;12.082;2023-04-25T22:20:22;8.20;;;2.30;;
62037;SDS011;47991;42.974;12.082;2023-04-25T22:22:55;3.90;;;1.50;;
62037;SDS011;47991;42.974;12.082;2023-04-25T22:25:22;4.60;;;1.50;;
62037;SDS011;47991;42.974;12.082;2023-04-25T22:27:49;2.50;;;1.60;;
62037;SDS011;47991;42.974;12.082;2023-04-25T22:30:16;4.70;;;1.80;;
62037;SDS011;47991;42.974;12.082;2023-04-25T22:32:43;4.20;;;1.50;;
62037;SDS011;47991;42.974;12.082;2023-04-25T22:35:09;2.30;;;1.40;;
62037;SDS011;47991;42.974;12.082;2023-04-25T22:37:36;4.40;;;1.50;;
62037;SDS011;47991;42.974;12.082;2023-04-25T22:40:03;4.20;;;1.50;;
62037;SDS011;47991;42.974;12.082;2023-04-25T22:42:39;5.20;;;1.60;;
62037;SDS011;47991;42.974;12.082;2023-04-25T22:45:08;4.70;;;1.60;;
62037;SDS011;47991;42.974;12.082;2023-04-25T22:47:56;5.80;;;2.10;;
62037;SDS011;47991;42.974;12.082;2023-04-25T22:50:23;4.60;;;1.80;;
62037;SDS011;47991;42.974;12.082;2023-04-25T22:52:50;4.80;;;1.80;;
62037;SDS011;47991;42.974;12.082;2023-04-25T22:55:18;3.90;;;1.70;;
62037;SDS011;47991;42.974;12.082;2023-04-25T22:57:45;3.10;;;1.40;;
62037;SDS011;47991;42.974;12.082;2023-04-25T23:00:17;4.40;;;1.80;;
62037;SDS011;47991;42.974;12.082;2023-04-25T23:02:47;5.20;;;1.90;;
62037;SDS011;47991;42.974;12.082;2023-04-25T23:05:22;5.80;;;2.10;;
62037;SDS011;47991;42.974;12.082;2023-04-25T23:07:54;5.20;;;2.10;;
62037;SDS011;47991;42.974;12.082;2023-04-25T23:10:26;5.20;;;2.20;;
62037;SDS011;47991;42.974;12.082;2023-04-25T23:12:56;4.50;;;1.90;;
62037;SDS011;47991;42.974;12.082;2023-04-25T23:15:26;2.90;;;1.40;;
62037;SDS011;47991;42.974;12.082;2023-04-25T23:18:02;2.70;;;1.50;;
62037;SDS011;47991;42.974;12.082;2023-04-25T23:20:41;2.70;;;1.50;;
62037;SDS011;47991;42.974;12.082;2023-04-25T23:23:17;3.50;;;1.40;;
62037;SDS011;47991;42.974;12.082;2023-04-25T23:25:44;4.80;;;1.30;;
62037;SDS011;47991;42.974;12.082;2023-04-25T23:28:10;3.60;;;1.60;;
62037;SDS011;47991;42.974;12.082;2023-04-25T23:30:41;4.40;;;1.50;;
62037;SDS011;47991;42.974;12.082;2023-04-25T23:33:39;3.60;;;1.30;;
62037;SDS011;47991;42.974;12.082;2023-04-25T23:36:17;3.80;;;1.60;;
62037;SDS011;47991;42.974;12.082;2023-04-25T23:38:49;4.90;;;1.80;;
62037;SDS011;47991;42.974;12.082;2023-04-25T23:41:17;2.60;;;1.60;;
62037;SDS011;47991;42.974;12.082;2023-04-25T23:43:43;4.40;;;1.70;;
62037;SDS011;47991;42.974;12.082;2023-04-25T23:46:36;3.40;;;1.40;;